Time;durP1;ratioP1;P1;durP2;ratioP2;P2;SDS_P1;SDS_P2;PMS_P1;PMS_P2;Temp;Humidity;BMP_temperature;BMP_pressure;BME280_temperature;BME280_humidity;BME280_pressure;Samples;Min_cycle;Max_cycle;Signal;HPM_P1;HPM_P2
2021/06/22 00:00:36;;;;;;;9.98;4.55;;;;;;;;;;1451728;40;20433;-87
2021/06/22 00:01:38;;;;;;;6.22;3.95;;;;;;;;;;1455846;40;20432;-88
2021/06/22 00:02:40;;;;;;;8.38;4.90;;;;;;;;;;1459218;40;20437;-88
2021/06/22 00:03:42;;;;;;;8.05;4.60;;;;;;;;;;1458185;40;20422;-87
2021/06/22 00:04:43;;;;;;;10.33;4.30;;;;;;;;;;1454548;40;20569;-90
2021/06/22 00:05:45;;;;;;;10.63;4.25;;;;;;;;;;1450830;40;20723;-87
2021/06/22 00:06:47;;;;;;;6.10;4.10;;;;;;;;;;1454825;40;20414;-87
2021/06/22 00:07:53;;;;;;;8.85;4.03;;;;;;;;;;1459279;40;20695;-88
2021/06/22 00:09:03;;;;;;;8.20;4.70;;;;;;;;;;1451644;40;20514;-89
2021/06/22 00:10:07;;;;;;;8.82;3.92;;;;;;;;;;1455743;40;20731;-88
2021/06/22 00:11:11;;;;;;;11.32;4.80;;;;;;;;;;1460118;40;20422;-87
2021/06/22 00:12:17;;;;;;;7.35;4.15;;;;;;;;;;1451269;41;20399;-88
2021/06/22 00:13:19;;;;;;;8.25;4.25;;;;;;;;;;1447828;40;20779;-88
2021/06/22 00:14:21;;;;;;;11.88;4.90;;;;;;;;;;1455876;40;20412;-88
2021/06/22 00:15:24;;;;;;;11.88;5.40;;;;;;;;;;1455310;40;20421;-87
2021/06/22 00:16:27;;;;;;;10.10;4.35;;;;;;;;;;1455002;40;20731;-88
2021/06/22 00:17:30;;;;;;;9.10;4.43;;;;;;;;;;1451279;40;20410;-88
2021/06/22 00:18:33;;;;;;;10.18;4.55;;;;;;;;;;1454807;40;20408;-88
2021/06/22 00:19:35;;;;;;;6.65;4.00;;;;;;;;;;1455324;40;20420;-88
2021/06/22 00:20:36;;;;;;;6.15;3.88;;;;;;;;;;1451324;40;20422;-88
2021/06/22 00:21:40;;;;;;;8.32;4.15;;;;;;;;;;1451395;40;20434;-88
2021/06/22 00:22:44;;;;;;;10.77;4.40;;;;;;;;;;1452810;40;20412;-89
2021/06/22 00:23:46;;;;;;;7.38;4.13;;;;;;;;;;1450820;41;20426;-88
2021/06/22 00:24:48;;;;;;;9.30;4.25;;;;;;;;;;1453121;40;20407;-84
2021/06/22 00:25:59;;;;;;;9.35;4.25;;;;;;;;;;1454021;40;20515;-88
2021/06/22 00:27:01;;;;;;;8.98;4.15;;;;;;;;;;1455428;40;20688;-87
2021/06/22 00:28:04;;;;;;;8.05;4.13;;;;;;;;;;1451185;41;20420;-87
2021/06/22 00:29:06;;;;;;;9.90;4.67;;;;;;;;;;1452116;40;21007;-86
2021/06/22 00:30:08;;;;;;;7.93;3.92;;;;;;;;;;1463172;40;20425;-86
2021/06/22 00:31:12;;;;;;;10.90;4.75;;;;;;;;;;1459254;40;20418;-87
2021/06/22 00:32:14;;;;;;;11.50;4.43;;;;;;;;;;1455129;40;20511;-89
2021/06/22 00:33:16;;;;;;;5.90;4.38;;;;;;;;;;1451465;40;20419;-87
2021/06/22 00:34:20;;;;;;;10.40;5.13;;;;;;;;;;1449676;40;20428;-88
2021/06/22 00:35:22;;;;;;;7.85;4.50;;;;;;;;;;1451126;41;20421;-87
2021/06/22 00:36:25;;;;;;;13.32;5.10;;;;;;;;;;1447586;40;20500;-86
2021/06/22 00:37:26;;;;;;;8.73;4.65;;;;;;;;;;1451283;40;20410;-85
2021/06/22 00:38:28;;;;;;;9.65;4.53;;;;;;;;;;1450907;40;20497;-85
2021/06/22 00:39:30;;;;;;;7.82;4.32;;;;;;;;;;1450862;40;20509;-87
2021/06/22 00:40:33;;;;;;;7.72;4.95;;;;;;;;;;1459157;40;20419;-86
2021/06/22 00:41:35;;;;;;;6.53;3.70;;;;;;;;;;1454580;40;20786;-86
2021/06/22 00:42:39;;;;;;;8.27;3.90;;;;;;;;;;1455692;40;20431;-87
2021/06/22 00:43:42;;;;;;;10.00;4.72;;;;;;;;;;1459403;40;20399;-88
2021/06/22 00:44:57;;;;;;;7.38;4.15;;;;;;;;;;1450718;41;21100;-85
2021/06/22 00:46:01;;;;;;;9.18;4.10;;;;;;;;;;1453165;40;20673;-87
2021/06/22 00:47:03;;;;;;;9.88;4.90;;;;;;;;;;1457411;40;20435;-85
2021/06/22 00:48:06;;;;;;;8.82;4.53;;;;;;;;;;1447384;40;20805;-86
2021/06/22 00:49:08;;;;;;;9.32;4.57;;;;;;;;;;1447656;40;20685;-86
2021/06/22 00:50:10;;;;;;;10.43;5.15;;;;;;;;;;1452784;40;20485;-89
2021/06/22 00:51:12;;;;;;;9.77;5.10;;;;;;;;;;1453686;40;20488;-85
2021/06/22 00:52:16;;;;;;;9.70;4.93;;;;;;;;;;1454352;40;20490;-88
2021/06/22 00:53:17;;;;;;;7.38;4.60;;;;;;;;;;1459383;40;20413;-90
2021/06/22 00:54:20;;;;;;;8.73;4.90;;;;;;;;;;1459679;40;20420;-90
2021/06/22 00:55:32;;;;;;;8.57;4.72;;;;;;;;;;1459425;40;20466;-89
2021/06/22 00:56:54;;;;;;;10.02;4.78;;;;;;;;;;1458920;40;20416;-87
2021/06/22 00:58:06;;;;;;;8.40;5.00;;;;;;;;;;1452581;41;20430;-87
2021/06/22 00:59:09;;;;;;;8.88;4.70;;;;;;;;;;1458746;40;20393;-86
2021/06/22 01:00:11;;;;;;;8.75;4.85;;;;;;;;;;1459805;40;20434;-87
2021/06/22 01:01:13;;;;;;;9.52;4.38;;;;;;;;;;1459416;40;20406;-86
2021/06/22 01:02:16;;;;;;;7.85;4.70;;;;;;;;;;1455132;40;20548;-87
2021/06/22 01:03:19;;;;;;;10.27;5.07;;;;;;;;;;1455340;40;20408;-87
2021/06/22 01:04:21;;;;;;;10.10;4.85;;;;;;;;;;1458409;40;20425;-86
2021/06/22 01:05:24;;;;;;;13.73;5.47;;;;;;;;;;1450907;41;20522;-87
2021/06/22 01:06:27;;;;;;;10.87;5.37;;;;;;;;;;1452129;40;20458;-86
2021/06/22 01:07:29;;;;;;;9.75;5.53;;;;;;;;;;1459171;40;20780;-87
2021/06/22 01:08:33;;;;;;;8.60;4.55;;;;;;;;;;1462642;40;20417;-89
2021/06/22 01:09:39;;;;;;;7.70;5.47;;;;;;;;;;1463561;40;20393;-87
2021/06/22 01:10:41;;;;;;;8.82;5.20;;;;;;;;;;1465407;40;20405;-87
2021/06/22 01:11:47;;;;;;;9.27;5.97;;;;;;;;;;1463467;40;20409;-83
2021/06/22 01:12:51;;;;;;;11.27;5.45;;;;;;;;;;1462101;40;20415;-87
2021/06/22 01:13:56;;;;;;;10.77;5.22;;;;;;;;;;1459570;40;20423;-89
2021/06/22 01:15:00;;;;;;;9.17;4.90;;;;;;;;;;1463726;40;20536;-85
2021/06/22 01:16:05;;;;;;;8.90;5.25;;;;;;;;;;1457860;40;20846;-84
2021/06/22 01:17:09;;;;;;;8.90;5.05;;;;;;;;;;1450900;41;20421;-84
2021/06/22 01:18:11;;;;;;;8.18;5.20;;;;;;;;;;1455977;40;20436;-86
2021/06/22 01:19:14;;;;;;;9.32;5.18;;;;;;;;;;1459742;40;20436;-87
2021/06/22 01:20:15;;;;;;;9.88;5.22;;;;;;;;;;1451681;41;20436;-90
2021/06/22 01:21:18;;;;;;;12.95;5.60;;;;;;;;;;1456478;40;20425;-87
2021/06/22 01:22:20;;;;;;;8.60;4.88;;;;;;;;;;1458340;40;20476;-87
2021/06/22 01:23:23;;;;;;;12.15;5.85;;;;;;;;;;1457843;40;20424;-88
2021/06/22 01:24:25;;;;;;;8.35;5.55;;;;;;;;;;1454147;41;20454;-86
2021/06/22 01:25:28;;;;;;;10.80;5.63;;;;;;;;;;1449708;41;20424;-85
2021/06/22 01:26:36;;;;;;;7.95;5.03;;;;;;;;;;1449601;41;20428;-86
2021/06/22 01:27:38;;;;;;;10.63;5.18;;;;;;;;;;1450874;41;20404;-83
2021/06/22 01:28:42;;;;;;;7.50;5.32;;;;;;;;;;1453875;40;20414;-84
2021/06/22 01:29:50;;;;;;;10.48;5.28;;;;;;;;;;1453442;40;20422;-85
2021/06/22 01:30:51;;;;;;;8.63;5.38;;;;;;;;;;1453933;40;20398;-85
2021/06/22 01:31:54;;;;;;;12.15;5.65;;;;;;;;;;1456926;40;20416;-83
2021/06/22 01:32:57;;;;;;;8.27;5.43;;;;;;;;;;1457111;40;20476;-84
2021/06/22 01:33:59;;;;;;;9.10;5.38;;;;;;;;;;1453113;41;20422;-85
2021/06/22 01:35:01;;;;;;;11.45;5.70;;;;;;;;;;1453291;40;20449;-84
2021/06/22 01:36:04;;;;;;;10.60;5.38;;;;;;;;;;1452739;41;20755;-87
2021/06/22 01:37:08;;;;;;;10.00;6.60;;;;;;;;;;1452444;40;20426;-85
2021/06/22 01:38:15;;;;;;;11.23;6.00;;;;;;;;;;1452477;41;20421;-86
2021/06/22 01:39:17;;;;;;;8.20;5.13;;;;;;;;;;1448926;41;20423;-85
2021/06/22 01:40:19;;;;;;;9.93;6.20;;;;;;;;;;1452610;40;20537;-85
2021/06/22 01:41:21;;;;;;;12.90;6.35;;;;;;;;;;1453172;41;20394;-86
2021/06/22 01:42:23;;;;;;;8.73;5.82;;;;;;;;;;1454086;41;20426;-89
2021/06/22 01:43:25;;;;;;;8.25;5.63;;;;;;;;;;1451737;41;20427;-85
2021/06/22 01:44:28;;;;;;;17.73;6.05;;;;;;;;;;1452343;41;20404;-83
2021/06/22 01:45:30;;;;;;;8.10;5.63;;;;;;;;;;1456513;40;20429;-85
2021/06/22 01:46:32;;;;;;;11.55;5.47;;;;;;;;;;1456486;40;20456;-86
2021/06/22 01:47:34;;;;;;;6.30;5.38;;;;;;;;;;1452532;41;20416;-86
2021/06/22 01:48:36;;;;;;;10.18;5.53;;;;;;;;;;1447734;41;20429;-85
2021/06/22 01:49:37;;;;;;;9.75;5.57;;;;;;;;;;1451932;41;20481;-86
2021/06/22 01:50:39;;;;;;;11.97;5.70;;;;;;;;;;1448739;41;20535;-86
2021/06/22 01:51:42;;;;;;;9.52;5.22;;;;;;;;;;1444857;41;20514;-85
2021/06/22 01:52:44;;;;;;;7.53;5.60;;;;;;;;;;1449455;41;20523;-85
2021/06/22 01:53:57;;;;;;;10.13;5.80;;;;;;;;;;1451876;41;20419;-86
2021/06/22 01:55:08;;;;;;;8.63;5.15;;;;;;;;;;1454648;40;20425;-85
2021/06/22 01:56:11;;;;;;;13.05;5.38;;;;;;;;;;1448793;41;20491;-86
2021/06/22 01:57:13;;;;;;;9.80;5.63;;;;;;;;;;1448319;41;20427;-85
2021/06/22 01:58:17;;;;;;;9.50;5.18;;;;;;;;;;1446170;41;20800;-85
2021/06/22 01:59:19;;;;;;;8.30;5.47;;;;;;;;;;1447777;40;20450;-86
2021/06/22 02:00:22;;;;;;;8.55;5.32;;;;;;;;;;1451565;41;20465;-85
2021/06/22 02:01:24;;;;;;;7.47;5.00;;;;;;;;;;1447621;41;20412;-85
2021/06/22 02:02:26;;;;;;;10.30;5.65;;;;;;;;;;1452091;40;20422;-86
2021/06/22 02:03:28;;;;;;;10.65;6.22;;;;;;;;;;1456293;40;20417;-85
2021/06/22 02:04:30;;;;;;;9.88;5.18;;;;;;;;;;1455853;40;20441;-85
2021/06/22 02:05:32;;;;;;;8.07;5.07;;;;;;;;;;1452188;41;20533;-84
2021/06/22 02:06:34;;;;;;;12.23;5.70;;;;;;;;;;1447988;41;20814;-85
2021/06/22 02:07:36;;;;;;;7.25;5.07;;;;;;;;;;1447335;41;20829;-85
2021/06/22 02:08:38;;;;;;;7.95;5.45;;;;;;;;;;1446886;41;20730;-85
2021/06/22 02:09:40;;;;;;;9.52;5.47;;;;;;;;;;1451447;40;20518;-85
2021/06/22 02:10:41;;;;;;;9.52;5.80;;;;;;;;;;1451328;41;20895;-87
2021/06/22 02:11:43;;;;;;;8.20;4.85;;;;;;;;;;1447217;41;20439;-86
2021/06/22 02:12:51;;;;;;;8.75;5.55;;;;;;;;;;1443387;41;20424;-86
2021/06/22 02:13:52;;;;;;;8.43;5.00;;;;;;;;;;1443529;41;20707;-86
2021/06/22 02:14:54;;;;;;;10.88;6.00;;;;;;;;;;1449159;41;20462;-86
2021/06/22 02:15:56;;;;;;;9.73;5.38;;;;;;;;;;1451070;40;20509;-86
2021/06/22 02:16:59;;;;;;;14.25;6.20;;;;;;;;;;1455564;40;20403;-86
2021/06/22 02:18:02;;;;;;;9.75;5.35;;;;;;;;;;1450839;41;20425;-85
2021/06/22 02:19:04;;;;;;;7.72;5.22;;;;;;;;;;1446538;41;20436;-85
2021/06/22 02:20:08;;;;;;;14.77;5.55;;;;;;;;;;1443573;41;20481;-86
2021/06/22 02:21:11;;;;;;;8.30;4.68;;;;;;;;;;1447698;40;20424;-85
2021/06/22 02:22:13;;;;;;;9.75;5.10;;;;;;;;;;1455556;40;20428;-87
2021/06/22 02:23:14;;;;;;;13.02;5.80;;;;;;;;;;1451270;41;20418;-85
2021/06/22 02:24:16;;;;;;;8.02;4.93;;;;;;;;;;1446945;41;20448;-86
2021/06/22 02:25:18;;;;;;;8.52;5.40;;;;;;;;;;1447176;41;20420;-87
2021/06/22 02:26:20;;;;;;;7.55;5.35;;;;;;;;;;1451718;40;20426;-86
2021/06/22 02:27:30;;;;;;;8.13;5.68;;;;;;;;;;1452509;40;20402;-88
2021/06/22 02:28:33;;;;;;;8.65;4.65;;;;;;;;;;1451453;41;20434;-82
2021/06/22 02:29:35;;;;;;;7.95;5.15;;;;;;;;;;1447464;41;20849;-87
2021/06/22 02:30:39;;;;;;;7.63;5.15;;;;;;;;;;1448092;41;20728;-87
2021/06/22 02:31:40;;;;;;;7.85;5.22;;;;;;;;;;1447970;41;20516;-87
2021/06/22 02:32:42;;;;;;;8.38;4.82;;;;;;;;;;1444308;41;20413;-88
2021/06/22 02:33:44;;;;;;;9.70;5.40;;;;;;;;;;1443656;41;20465;-86
2021/06/22 02:34:45;;;;;;;7.75;4.80;;;;;;;;;;1447119;41;20533;-88
2021/06/22 02:35:47;;;;;;;6.15;5.05;;;;;;;;;;1443535;41;20409;-88
2021/06/22 02:36:50;;;;;;;9.98;5.10;;;;;;;;;;1443506;41;20420;-86
2021/06/22 02:37:59;;;;;;;6.78;4.85;;;;;;;;;;1450068;41;20414;-86
2021/06/22 02:39:01;;;;;;;8.50;4.35;;;;;;;;;;1451555;41;20414;-87
2021/06/22 02:40:11;;;;;;;8.90;4.80;;;;;;;;;;1451017;41;20410;-86
2021/06/22 02:41:12;;;;;;;8.35;4.50;;;;;;;;;;1451456;41;20457;-86
2021/06/22 02:42:14;;;;;;;7.55;4.43;;;;;;;;;;1451055;41;20421;-86
2021/06/22 02:43:16;;;;;;;7.32;4.45;;;;;;;;;;1454182;40;20440;-86
2021/06/22 02:44:18;;;;;;;13.45;5.28;;;;;;;;;;1455062;40;20427;-85
2021/06/22 02:45:23;;;;;;;10.00;4.07;;;;;;;;;;1442703;41;20437;-86
2021/06/22 02:46:27;;;;;;;9.93;4.50;;;;;;;;;;1443589;40;20913;-86
2021/06/22 02:47:29;;;;;;;12.27;5.43;;;;;;;;;;1442522;41;20826;-85
2021/06/22 02:48:30;;;;;;;9.20;4.75;;;;;;;;;;1442864;41;20465;-85
2021/06/22 02:49:32;;;;;;;9.88;4.13;;;;;;;;;;1440493;41;20423;-86
2021/06/22 02:50:35;;;;;;;10.38;4.40;;;;;;;;;;1434797;41;20477;-86
2021/06/22 02:51:37;;;;;;;9.45;4.22;;;;;;;;;;1440074;40;20496;-86
2021/06/22 02:52:39;;;;;;;9.45;3.90;;;;;;;;;;1454379;40;20439;-87
2021/06/22 02:53:41;;;;;;;10.30;4.75;;;;;;;;;;1454950;40;20416;-87
2021/06/22 02:54:43;;;;;;;11.25;3.72;;;;;;;;;;1454695;40;20463;-85
2021/06/22 02:55:44;;;;;;;10.20;3.72;;;;;;;;;;1446610;41;20463;-85
2021/06/22 02:56:46;;;;;;;7.03;3.45;;;;;;;;;;1447274;40;21031;-85
2021/06/22 02:57:51;;;;;;;11.85;4.10;;;;;;;;;;1450661;41;20458;-86
2021/06/22 02:58:55;;;;;;;6.85;3.80;;;;;;;;;;1451219;40;20430;-85
2021/06/22 02:59:56;;;;;;;7.38;3.75;;;;;;;;;;1450616;41;20801;-84
2021/06/22 03:00:58;;;;;;;11.23;4.45;;;;;;;;;;1450561;41;20425;-86
2021/06/22 03:02:00;;;;;;;9.85;3.67;;;;;;;;;;1444640;41;20418;-85
2021/06/22 03:03:03;;;;;;;8.35;3.45;;;;;;;;;;1450895;41;20418;-85
2021/06/22 03:04:05;;;;;;;6.78;3.05;;;;;;;;;;1450481;40;20407;-86
2021/06/22 03:05:08;;;;;;;8.52;3.70;;;;;;;;;;1446781;41;20866;-85
2021/06/22 03:06:09;;;;;;;13.32;3.85;;;;;;;;;;1447442;41;20476;-86
2021/06/22 03:07:16;;;;;;;8.32;3.10;;;;;;;;;;1444156;41;20898;-85
2021/06/22 03:08:18;;;;;;;7.50;3.28;;;;;;;;;;1440733;41;20435;-86
2021/06/22 03:09:20;;;;;;;9.40;3.72;;;;;;;;;;1443624;41;20421;-85
2021/06/22 03:10:24;;;;;;;7.70;3.63;;;;;;;;;;1443452;41;20875;-85
2021/06/22 03:11:26;;;;;;;11.88;3.38;;;;;;;;;;1447396;41;20504;-87
2021/06/22 03:12:29;;;;;;;10.73;3.72;;;;;;;;;;1451130;41;20414;-86
2021/06/22 03:13:31;;;;;;;9.15;3.55;;;;;;;;;;1451116;41;20411;-86
2021/06/22 03:14:32;;;;;;;9.52;3.78;;;;;;;;;;1447117;41;20427;-86
2021/06/22 03:15:34;;;;;;;12.20;3.88;;;;;;;;;;1442671;41;20433;-85
2021/06/22 03:16:36;;;;;;;9.95;3.30;;;;;;;;;;1437814;41;20883;-87
2021/06/22 03:17:38;;;;;;;12.95;4.45;;;;;;;;;;1447450;40;20423;-87
2021/06/22 03:18:39;;;;;;;9.38;3.42;;;;;;;;;;1450492;41;20485;-87
2021/06/22 03:19:41;;;;;;;11.05;3.55;;;;;;;;;;1451102;40;20622;-84
2021/06/22 03:20:43;;;;;;;9.82;3.75;;;;;;;;;;1454485;40;20455;-86
2021/06/22 03:21:46;;;;;;;10.73;3.35;;;;;;;;;;1447526;41;20428;-87
2021/06/22 03:22:48;;;;;;;10.68;3.42;;;;;;;;;;1452057;40;20417;-87
2021/06/22 03:23:50;;;;;;;10.25;3.83;;;;;;;;;;1456801;40;20424;-87
2021/06/22 03:24:52;;;;;;;14.82;3.97;;;;;;;;;;1454104;41;20398;-87
2021/06/22 03:25:53;;;;;;;9.10;3.30;;;;;;;;;;1454546;40;20867;-86
2021/06/22 03:26:57;;;;;;;9.77;3.42;;;;;;;;;;1451282;41;20411;-90
2021/06/22 03:27:58;;;;;;;14.02;4.43;;;;;;;;;;1452286;41;20419;-88
2021/06/22 03:29:00;;;;;;;11.98;3.42;;;;;;;;;;1458934;40;20439;-91
2021/06/22 03:30:05;;;;;;;11.63;4.35;;;;;;;;;;1455487;41;20419;-86
2021/06/22 03:31:07;;;;;;;9.52;3.70;;;;;;;;;;1451095;41;20396;-88
2021/06/22 03:32:10;;;;;;;11.70;3.67;;;;;;;;;;1447325;41;20416;-86
2021/06/22 03:33:12;;;;;;;13.75;4.82;;;;;;;;;;1441477;41;20436;-85
2021/06/22 03:34:14;;;;;;;9.85;4.18;;;;;;;;;;1447730;41;20764;-88
2021/06/22 03:35:16;;;;;;;7.68;3.72;;;;;;;;;;1446983;41;20467;-87
2021/06/22 03:36:17;;;;;;;13.95;4.20;;;;;;;;;;1442939;41;20494;-85
2021/06/22 03:37:22;;;;;;;9.00;4.22;;;;;;;;;;1448218;40;20794;-86
2021/06/22 03:38:24;;;;;;;12.73;3.70;;;;;;;;;;1451127;41;20402;-86
2021/06/22 03:39:32;;;;;;;11.82;3.92;;;;;;;;;;1451289;41;20417;-90
2021/06/22 03:40:35;;;;;;;17.43;4.80;;;;;;;;;;1451305;41;20535;-88
2021/06/22 03:41:37;;;;;;;10.70;3.40;;;;;;;;;;1445899;41;20574;-86
2021/06/22 03:42:39;;;;;;;7.70;4.43;;;;;;;;;;1450870;41;20421;-87
2021/06/22 03:43:41;;;;;;;8.95;4.13;;;;;;;;;;1442619;41;20436;-87
2021/06/22 03:44:43;;;;;;;11.25;4.05;;;;;;;;;;1439191;41;20411;-86
2021/06/22 03:45:46;;;;;;;12.50;4.38;;;;;;;;;;1450480;41;20483;-86
2021/06/22 03:46:47;;;;;;;8.05;3.95;;;;;;;;;;1449249;41;20410;-86
2021/06/22 03:47:50;;;;;;;7.93;3.28;;;;;;;;;;1443078;41;20437;-86
2021/06/22 03:48:51;;;;;;;11.40;4.30;;;;;;;;;;1443214;41;20782;-84
2021/06/22 03:49:53;;;;;;;8.98;3.70;;;;;;;;;;1445515;41;20837;-87
2021/06/22 03:50:55;;;;;;;9.50;4.15;;;;;;;;;;1446927;41;20784;-85
2021/06/22 03:51:57;;;;;;;10.50;3.75;;;;;;;;;;1456976;40;20420;-88
2021/06/22 03:52:58;;;;;;;12.30;4.45;;;;;;;;;;1462594;40;20470;-86
2021/06/22 03:54:00;;;;;;;12.70;4.60;;;;;;;;;;1461488;40;20416;-88
2021/06/22 03:55:25;;;;;;;7.82;4.00;;;;;;;;;;1454564;41;20808;-86
2021/06/22 03:56:26;;;;;;;15.15;3.90;;;;;;;;;;1448898;41;20430;-89
2021/06/22 03:57:28;;;;;;;12.02;4.57;;;;;;;;;;1453455;41;20740;-86
2021/06/22 03:58:31;;;;;;;9.25;3.78;;;;;;;;;;1447665;41;20425;-85
2021/06/22 03:59:33;;;;;;;13.18;4.53;;;;;;;;;;1448570;41;20424;-88
2021/06/22 04:00:35;;;;;;;11.90;4.15;;;;;;;;;;1448478;41;20437;-84
2021/06/22 04:01:37;;;;;;;13.95;3.97;;;;;;;;;;1451097;41;20420;-84
2021/06/22 04:07:09;;;;;;;14.07;4.30;;;;;;;;;;1453079;40;20428;-86
2021/06/22 04:08:11;;;;;;;10.43;3.90;;;;;;;;;;1451733;41;20490;-85
2021/06/22 04:09:13;;;;;;;10.57;4.43;;;;;;;;;;1443626;41;20414;-84
2021/06/22 04:10:16;;;;;;;9.13;4.03;;;;;;;;;;1440011;41;20441;-86
2021/06/22 04:11:18;;;;;;;9.73;4.68;;;;;;;;;;1448666;40;20484;-85
2021/06/22 04:12:20;;;;;;;11.60;4.65;;;;;;;;;;1450689;41;20438;-84
2021/06/22 04:13:22;;;;;;;13.02;4.75;;;;;;;;;;1451712;40;20412;-85
2021/06/22 04:14:23;;;;;;;10.23;4.95;;;;;;;;;;1454925;41;20453;-86
2021/06/22 04:15:25;;;;;;;10.50;4.70;;;;;;;;;;1448243;41;20815;-85
2021/06/22 04:16:28;;;;;;;8.13;4.35;;;;;;;;;;1451902;40;20422;-86
2021/06/22 04:17:29;;;;;;;11.93;5.30;;;;;;;;;;1447786;41;20603;-85
2021/06/22 04:18:33;;;;;;;16.42;6.07;;;;;;;;;;1447948;40;20464;-85
2021/06/22 04:19:34;;;;;;;12.75;6.53;;;;;;;;;;1451663;41;20466;-85
2021/06/22 04:20:39;;;;;;;12.93;5.88;;;;;;;;;;1451742;41;20421;-85
2021/06/22 04:21:42;;;;;;;11.52;5.85;;;;;;;;;;1449012;40;20446;-85
2021/06/22 04:22:44;;;;;;;12.52;6.28;;;;;;;;;;1449563;41;20398;-86
2021/06/22 04:23:46;;;;;;;10.20;6.03;;;;;;;;;;1451702;40;20430;-85
2021/06/22 04:24:48;;;;;;;13.55;6.60;;;;;;;;;;1459451;40;20438;-86
2021/06/22 04:25:50;;;;;;;14.57;7.70;;;;;;;;;;1458053;40;20419;-86
2021/06/22 04:26:52;;;;;;;14.38;8.00;;;;;;;;;;1460215;40;20472;-84
2021/06/22 04:27:54;;;;;;;9.05;6.57;;;;;;;;;;1460185;40;20440;-87
2021/06/22 04:28:55;;;;;;;13.88;8.10;;;;;;;;;;1457579;40;20435;-88
2021/06/22 04:29:57;;;;;;;11.35;7.70;;;;;;;;;;1457795;40;20444;-86
2021/06/22 04:30:59;;;;;;;15.00;7.53;;;;;;;;;;1455785;41;20490;-87
2021/06/22 04:32:08;;;;;;;15.55;8.30;;;;;;;;;;1451178;40;20428;-85
2021/06/22 04:33:14;;;;;;;14.32;8.60;;;;;;;;;;1459963;40;20447;-86
2021/06/22 04:34:16;;;;;;;15.45;8.10;;;;;;;;;;1462332;40;20429;-85
2021/06/22 04:35:19;;;;;;;13.90;9.07;;;;;;;;;;1459650;40;20448;-87
2021/06/22 04:36:22;;;;;;;13.43;8.73;;;;;;;;;;1460510;40;20401;-88
2021/06/22 04:37:26;;;;;;;13.43;8.75;;;;;;;;;;1460364;40;20413;-86
2021/06/22 04:38:27;;;;;;;15.02;9.52;;;;;;;;;;1455546;40;20410;-85
2021/06/22 04:39:29;;;;;;;15.70;8.63;;;;;;;;;;1454565;40;20418;-86
2021/06/22 04:40:32;;;;;;;11.07;8.60;;;;;;;;;;1454950;40;20414;-85
2021/06/22 04:41:45;;;;;;;15.50;10.15;;;;;;;;;;1458974;40;20409;-85
2021/06/22 04:42:47;;;;;;;14.75;9.75;;;;;;;;;;1459757;40;20406;-86
2021/06/22 04:43:55;;;;;;;14.93;9.85;;;;;;;;;;1459221;40;20556;-85
2021/06/22 04:44:57;;;;;;;13.32;8.98;;;;;;;;;;1455713;40;20666;-86
2021/06/22 04:46:00;;;;;;;12.70;9.23;;;;;;;;;;1448318;41;20438;-84
2021/06/22 04:47:02;;;;;;;19.20;9.95;;;;;;;;;;1449062;40;20527;-85
2021/06/22 04:48:23;;;;;;;16.35;10.50;;;;;;;;;;1452289;40;20493;-86
2021/06/22 04:49:25;;;;;;;20.33;10.47;;;;;;;;;;1456139;40;20525;-85
2021/06/22 04:50:27;;;;;;;17.85;10.30;;;;;;;;;;1455215;40;20432;-87
2021/06/22 04:51:29;;;;;;;17.20;10.82;;;;;;;;;;1452144;40;20429;-85
2021/06/22 04:52:38;;;;;;;17.05;11.18;;;;;;;;;;1458721;40;20426;-85
2021/06/22 04:53:41;;;;;;;17.95;10.70;;;;;;;;;;1459170;40;20402;-85
2021/06/22 04:54:43;;;;;;;14.57;11.48;;;;;;;;;;1462779;40;20417;-86
2021/06/22 04:55:46;;;;;;;17.70;10.60;;;;;;;;;;1463224;40;20487;-86
2021/06/22 04:56:48;;;;;;;13.68;10.38;;;;;;;;;;1456507;40;20787;-86
2021/06/22 04:57:55;;;;;;;18.88;11.32;;;;;;;;;;1447330;41;20411;-85
2021/06/22 04:58:57;;;;;;;15.98;10.60;;;;;;;;;;1451478;40;21099;-85
2021/06/22 04:59:59;;;;;;;15.98;10.20;;;;;;;;;;1447295;41;20427;-85
2021/06/22 05:01:07;;;;;;;19.00;12.18;;;;;;;;;;1447644;40;20427;-85
2021/06/22 05:02:09;;;;;;;17.08;11.73;;;;;;;;;;1455894;40;20814;-85
2021/06/22 05:03:11;;;;;;;20.42;11.70;;;;;;;;;;1459397;40;20454;-85
2021/06/22 05:04:14;;;;;;;13.07;11.75;;;;;;;;;;1458811;40;20407;-85
2021/06/22 05:05:16;;;;;;;17.05;10.93;;;;;;;;;;1459372;40;20423;-86
2021/06/22 05:06:17;;;;;;;21.60;12.82;;;;;;;;;;1455379;40;20494;-86
2021/06/22 05:07:19;;;;;;;17.73;11.57;;;;;;;;;;1455141;40;20424;-86
2021/06/22 05:08:21;;;;;;;19.77;11.70;;;;;;;;;;1459138;40;20828;-84
2021/06/22 05:09:24;;;;;;;16.52;12.05;;;;;;;;;;1450836;40;20409;-85
2021/06/22 05:10:26;;;;;;;14.80;11.30;;;;;;;;;;1451374;40;20429;-86
2021/06/22 05:11:29;;;;;;;19.50;11.85;;;;;;;;;;1455067;40;20412;-86
2021/06/22 05:12:41;;;;;;;18.33;11.52;;;;;;;;;;1455086;40;20930;-85
2021/06/22 05:13:44;;;;;;;14.13;10.93;;;;;;;;;;1452215;40;20633;-87
2021/06/22 05:14:49;;;;;;;16.67;11.80;;;;;;;;;;1447595;41;20426;-86
2021/06/22 05:15:53;;;;;;;16.75;11.65;;;;;;;;;;1450923;40;20418;-84
2021/06/22 05:17:10;;;;;;;19.30;11.95;;;;;;;;;;1448837;41;20416;-87
2021/06/22 05:18:12;;;;;;;18.15;12.35;;;;;;;;;;1452576;40;20431;-87
2021/06/22 05:19:21;;;;;;;13.98;11.40;;;;;;;;;;1454522;40;20401;-87
2021/06/22 05:20:26;;;;;;;16.05;12.32;;;;;;;;;;1454975;40;20405;-87
2021/06/22 05:21:27;;;;;;;20.42;12.52;;;;;;;;;;1454647;40;20412;-87
2021/06/22 05:22:29;;;;;;;18.83;12.82;;;;;;;;;;1450885;41;20434;-86
2021/06/22 05:23:31;;;;;;;24.50;12.35;;;;;;;;;;1450894;40;20426;-86
2021/06/22 05:24:33;;;;;;;18.67;11.55;;;;;;;;;;1451254;41;20437;-87
2021/06/22 05:25:35;;;;;;;19.30;12.57;;;;;;;;;;1447376;41;20451;-86
2021/06/22 05:26:39;;;;;;;18.73;12.73;;;;;;;;;;1446905;41;20420;-86
2021/06/22 05:27:42;;;;;;;16.30;12.02;;;;;;;;;;1447273;41;20427;-86
2021/06/22 05:28:45;;;;;;;15.18;11.52;;;;;;;;;;1451508;40;20426;-85
2021/06/22 05:29:47;;;;;;;19.77;11.57;;;;;;;;;;1451486;40;20422;-86
2021/06/22 05:30:54;;;;;;;18.80;11.63;;;;;;;;;;1447873;41;20728;-86
2021/06/22 05:31:56;;;;;;;23.27;11.55;;;;;;;;;;1448017;40;20463;-86
2021/06/22 05:33:00;;;;;;;20.27;12.90;;;;;;;;;;1455759;40;20468;-86
2021/06/22 05:34:04;;;;;;;14.07;12.03;;;;;;;;;;1458729;40;21006;-86
2021/06/22 05:35:13;;;;;;;18.77;12.55;;;;;;;;;;1460759;40;20422;-87
2021/06/22 05:36:21;;;;;;;21.92;12.98;;;;;;;;;;1457508;40;20810;-87
2021/06/22 05:37:24;;;;;;;16.48;11.45;;;;;;;;;;1459523;40;20765;-87
2021/06/22 05:38:29;;;;;;;22.15;12.40;;;;;;;;;;1449881;41;20406;-89
2021/06/22 05:39:31;;;;;;;16.02;11.30;;;;;;;;;;1445106;40;20493;-87
2021/06/22 05:40:38;;;;;;;20.27;11.90;;;;;;;;;;1456436;40;20420;-85
2021/06/22 05:41:40;;;;;;;17.10;11.55;;;;;;;;;;1459469;40;20407;-86
2021/06/22 05:42:43;;;;;;;15.65;11.80;;;;;;;;;;1455703;40;20834;-85
2021/06/22 05:43:45;;;;;;;17.23;12.00;;;;;;;;;;1455813;40;20778;-86
2021/06/22 05:44:47;;;;;;;18.52;12.18;;;;;;;;;;1459064;40;20781;-85
2021/06/22 05:45:49;;;;;;;15.05;11.13;;;;;;;;;;1459049;40;21167;-86
2021/06/22 05:46:51;;;;;;;19.73;12.48;;;;;;;;;;1458250;40;20419;-88
2021/06/22 05:47:52;;;;;;;14.45;11.05;;;;;;;;;;1455550;40;20416;-87
2021/06/22 05:53:44;;;;;;;17.60;11.30;;;;;;;;;;1457638;40;20435;-85
2021/06/22 05:54:46;;;;;;;15.40;11.73;;;;;;;;;;1459494;40;20438;-86
2021/06/22 05:55:50;;;;;;;16.70;10.75;;;;;;;;;;1459754;40;20430;-86
2021/06/22 05:56:54;;;;;;;14.82;10.38;;;;;;;;;;1452858;40;20451;-86
2021/06/22 05:58:00;;;;;;;16.17;11.35;;;;;;;;;;1454752;40;20414;-86
2021/06/22 05:59:08;;;;;;;13.25;10.65;;;;;;;;;;1456391;40;20401;-87
2021/06/22 06:00:12;;;;;;;13.43;10.85;;;;;;;;;;1464433;40;20387;-85
2021/06/22 06:01:14;;;;;;;20.75;11.88;;;;;;;;;;1459297;40;20424;-87
2021/06/22 06:02:22;;;;;;;18.88;10.82;;;;;;;;;;1460313;40;20526;-85
2021/06/22 06:03:24;;;;;;;13.88;10.07;;;;;;;;;;1463365;40;20395;-86
2021/06/22 06:04:29;;;;;;;17.88;10.25;;;;;;;;;;1459196;40;20897;-87
2021/06/22 06:05:33;;;;;;;16.88;10.45;;;;;;;;;;1459236;40;20417;-85
2021/06/22 06:06:36;;;;;;;14.45;10.30;;;;;;;;;;1461191;40;20453;-85
2021/06/22 06:07:40;;;;;;;15.88;10.13;;;;;;;;;;1464704;40;20436;-85
2021/06/22 06:19:17;;;;;;;16.67;9.77;;;;;;;;;;1458891;40;20813;-85
2021/06/22 06:20:20;;;;;;;12.00;9.50;;;;;;;;;;1460886;40;20403;-85
2021/06/22 06:21:25;;;;;;;13.98;9.02;;;;;;;;;;1460110;40;20413;-85
2021/06/22 06:22:41;;;;;;;13.63;9.02;;;;;;;;;;1457056;40;20405;-84
2021/06/22 06:23:45;;;;;;;12.95;7.78;;;;;;;;;;1453507;40;20418;-85
2021/06/22 06:24:49;;;;;;;9.70;8.38;;;;;;;;;;1453221;40;20790;-84
2021/06/22 06:25:52;;;;;;;10.23;7.63;;;;;;;;;;1451889;40;20487;-84
2021/06/22 06:27:02;;;;;;;14.43;8.18;;;;;;;;;;1455956;40;20416;-85
2021/06/22 06:28:12;;;;;;;10.98;8.60;;;;;;;;;;1459785;40;20466;-86
2021/06/22 06:29:28;;;;;;;10.73;8.25;;;;;;;;;;1454292;40;20425;-87
2021/06/22 06:30:34;;;;;;;11.90;7.97;;;;;;;;;;1455592;40;20412;-88
2021/06/22 06:31:36;;;;;;;13.15;8.00;;;;;;;;;;1456516;40;20415;-88
2021/06/22 06:32:46;;;;;;;14.60;8.35;;;;;;;;;;1455959;41;20429;-89
2021/06/22 06:33:48;;;;;;;14.25;8.73;;;;;;;;;;1453314;40;20531;-86
2021/06/22 06:34:50;;;;;;;12.07;8.35;;;;;;;;;;1458438;40;20503;-86
2021/06/22 06:35:54;;;;;;;12.57;8.57;;;;;;;;;;1458703;40;20428;-86